createdAt,value
2022-07-25T00:00:32.498Z,867.89
2022-07-25T00:01:32.580Z,867.88
2022-07-25T00:02:32.526Z,867.88
2022-07-25T00:03:32.766Z,867.87
2022-07-25T00:04:32.505Z,867.87
2022-07-25T00:05:37.663Z,867.81
2022-07-25T00:06:33.448Z,867.81
2022-07-25T00:07:32.417Z,867.80
2022-07-25T00:08:32.425Z,867.78
2022-07-25T00:09:32.410Z,867.78
2022-07-25T00:10:32.406Z,867.78
2022-07-25T00:11:32.414Z,867.77
2022-07-25T00:12:32.370Z,867.76
2022-07-25T00:13:32.381Z,867.74
2022-07-25T00:14:32.366Z,867.69
2022-07-25T00:15:32.350Z,867.73
2022-07-25T00:16:32.393Z,867.71
2022-07-25T00:17:32.346Z,867.70
2022-07-25T00:18:32.318Z,867.72
2022-07-25T00:19:32.290Z,867.73
2022-07-25T00:20:32.289Z,867.73
2022-07-25T00:21:32.282Z,867.72
2022-07-25T00:22:32.270Z,867.77
2022-07-25T00:23:32.350Z,867.75
2022-07-25T00:24:32.230Z,867.81
2022-07-25T00:25:32.222Z,867.85
2022-07-25T00:26:36.596Z,867.89
2022-07-25T00:27:33.203Z,867.90
2022-07-25T00:28:32.210Z,867.94
2022-07-25T00:29:32.187Z,867.98
2022-07-25T00:30:32.201Z,867.98
2022-07-25T00:31:32.250Z,868.00
2022-07-25T00:32:32.161Z,868.01
2022-07-25T00:33:32.161Z,868.03
2022-07-25T00:34:32.167Z,868.04
2022-07-25T00:35:32.114Z,868.04
2022-07-25T00:36:32.105Z,868.07
2022-07-25T00:37:32.143Z,868.07
2022-07-25T00:38:32.079Z,868.08
2022-07-25T00:39:32.062Z,868.05
2022-07-25T00:40:32.074Z,868.05
2022-07-25T00:41:32.077Z,868.02
2022-07-25T00:42:32.507Z,868.05
2022-07-25T00:43:32.024Z,868.08
2022-07-25T00:44:32.026Z,868.10
2022-07-25T00:45:32.012Z,868.09
2022-07-25T00:46:32.037Z,868.11
2022-07-25T00:47:31.986Z,868.13
2022-07-25T00:48:32.856Z,868.15
2022-07-25T00:49:31.954Z,868.14
2022-07-25T00:50:31.960Z,868.13
2022-07-25T00:51:31.941Z,868.12
2022-07-25T00:52:31.939Z,868.16
2022-07-25T00:53:31.914Z,868.09
2022-07-25T00:54:31.918Z,868.12
2022-07-25T00:55:31.906Z,868.17
2022-07-25T00:56:31.913Z,868.16
2022-07-25T00:57:31.970Z,868.17
2022-07-25T00:58:31.868Z,868.14
2022-07-25T00:59:31.854Z,868.16
2022-07-25T01:00:31.869Z,868.13
2022-07-25T01:01:31.873Z,868.17
2022-07-25T01:02:31.897Z,868.12
2022-07-25T01:03:31.830Z,868.18
2022-07-25T01:04:31.801Z,868.19
2022-07-25T01:05:31.803Z,868.18
2022-07-25T01:06:31.793Z,868.16
2022-07-25T01:07:31.778Z,868.17
2022-07-25T01:08:31.759Z,868.20
2022-07-25T01:09:31.739Z,868.20
2022-07-25T01:10:31.742Z,868.23
2022-07-25T01:11:31.744Z,868.22
2022-07-25T01:12:31.710Z,868.22
2022-07-25T01:13:31.707Z,868.20
2022-07-25T01:14:31.690Z,868.19
2022-07-25T01:15:31.752Z,868.18
2022-07-25T01:16:31.670Z,868.15
2022-07-25T01:17:31.690Z,868.16
2022-07-25T01:18:31.664Z,868.20
2022-07-25T01:19:31.627Z,868.22
2022-07-25T01:20:31.631Z,868.26
2022-07-25T01:21:31.623Z,868.25
2022-07-25T01:22:31.602Z,868.25
2022-07-25T01:23:31.614Z,868.25
2022-07-25T01:24:31.581Z,868.24
2022-07-25T01:25:31.562Z,868.30
2022-07-25T01:26:31.568Z,868.29
2022-07-25T01:27:31.583Z,868.30
2022-07-25T01:28:31.995Z,868.34
2022-07-25T01:29:31.518Z,868.33
2022-07-25T01:30:31.514Z,868.31
2022-07-25T01:31:31.605Z,868.27
2022-07-25T01:32:31.548Z,868.22
2022-07-25T01:33:52.495Z,868.21
2022-07-25T01:34:31.475Z,868.19
2022-07-25T01:35:31.467Z,868.18
2022-07-25T01:36:31.435Z,868.19
2022-07-25T01:37:31.446Z,868.20
2022-07-25T01:38:31.434Z,868.18
2022-07-25T01:39:31.432Z,868.14
2022-07-25T01:40:31.398Z,868.12
2022-07-25T01:41:31.387Z,868.08
2022-07-25T01:42:31.487Z,868.06
2022-07-25T01:43:31.359Z,868.05
2022-07-25T01:44:31.366Z,868.03
2022-07-25T01:45:52.382Z,868.02
2022-07-25T01:46:31.395Z,867.99
2022-07-25T01:47:31.322Z,867.98
2022-07-25T01:48:31.344Z,868.02
2022-07-25T01:49:31.317Z,868.03
2022-07-25T01:50:31.279Z,868.05
2022-07-25T01:51:31.281Z,868.04
2022-07-25T01:52:31.426Z,868.06
2022-07-25T01:53:31.287Z,868.08
2022-07-25T01:54:31.240Z,868.07
2022-07-25T01:55:31.251Z,868.10
2022-07-25T01:56:31.990Z,868.14
2022-07-25T01:57:31.374Z,868.13
2022-07-25T01:58:31.199Z,868.14
2022-07-25T01:59:31.191Z,868.14
2022-07-25T02:00:31.173Z,868.14
2022-07-25T02:01:31.257Z,868.12
2022-07-25T02:02:31.158Z,868.10
2022-07-25T02:03:31.192Z,868.09
2022-07-25T02:04:31.175Z,868.09
2022-07-25T02:05:31.127Z,868.07
2022-07-25T02:06:31.102Z,868.06
2022-07-25T02:07:31.114Z,868.10
2022-07-25T02:08:31.113Z,868.08
2022-07-25T02:09:31.107Z,868.04
2022-07-25T02:10:31.277Z,867.99
2022-07-25T02:11:31.065Z,868.03
2022-07-25T02:12:31.056Z,867.98
2022-07-25T02:13:31.046Z,867.98
2022-07-25T02:14:31.023Z,867.95
2022-07-25T02:15:31.022Z,867.93
2022-07-25T02:16:31.070Z,867.93
2022-07-25T02:17:31.156Z,867.98
2022-07-25T02:18:31.046Z,867.97
2022-07-25T02:19:30.992Z,867.97
2022-07-25T02:20:31.011Z,868.00
2022-07-25T02:21:30.969Z,867.99
2022-07-25T02:22:30.935Z,867.98
2022-07-25T02:23:30.944Z,867.97
2022-07-25T02:24:30.929Z,867.98
2022-07-25T02:25:30.928Z,867.96
2022-07-25T02:26:30.875Z,867.91
2022-07-25T02:27:30.897Z,867.94
2022-07-25T02:28:30.895Z,867.88
2022-07-25T02:29:31.088Z,867.90
2022-07-25T02:30:30.926Z,867.92
2022-07-25T02:31:30.850Z,867.89
2022-07-25T02:32:31.000Z,867.87
2022-07-25T02:33:30.822Z,867.85
2022-07-25T02:34:30.827Z,867.87
2022-07-25T02:35:30.827Z,867.87
2022-07-25T02:36:30.799Z,867.82
2022-07-25T02:37:30.800Z,867.76
2022-07-25T02:38:30.749Z,867.76
2022-07-25T02:39:30.799Z,867.78
2022-07-25T02:40:30.727Z,867.74
2022-07-25T02:41:30.728Z,867.73
2022-07-25T02:42:30.728Z,867.70
2022-07-25T02:43:30.711Z,867.74
2022-07-25T02:44:30.692Z,867.77
2022-07-25T02:45:30.720Z,867.81
2022-07-25T02:46:30.818Z,867.79
2022-07-25T02:47:30.674Z,867.78
2022-07-25T02:48:30.703Z,867.84
2022-07-25T02:49:30.661Z,867.86
2022-07-25T02:50:30.660Z,867.83
2022-07-25T02:51:30.644Z,867.86
2022-07-25T02:52:30.609Z,867.81
2022-07-25T02:53:54.912Z,867.80
2022-07-25T02:54:31.580Z,867.84
2022-07-25T02:55:30.574Z,867.85
2022-07-25T02:56:32.010Z,867.79
2022-07-25T02:57:30.566Z,867.78
2022-07-25T02:58:30.525Z,867.82
2022-07-25T02:59:32.203Z,867.88
2022-07-25T03:00:30.504Z,867.92
2022-07-25T03:01:30.623Z,867.99
2022-07-25T03:02:30.493Z,868.00
2022-07-25T03:03:30.636Z,868.00
2022-07-25T03:04:30.630Z,868.09
2022-07-25T03:05:30.455Z,868.10
2022-07-25T03:06:30.483Z,868.14
2022-07-25T03:07:30.444Z,868.16
2022-07-25T03:08:30.424Z,868.21
2022-07-25T03:09:30.428Z,868.21
2022-07-25T03:10:30.408Z,868.22
2022-07-25T03:11:30.444Z,868.24
2022-07-25T03:12:30.397Z,868.21
2022-07-25T03:13:30.404Z,868.24
2022-07-25T03:14:30.368Z,868.21
2022-07-25T03:15:30.360Z,868.22
2022-07-25T03:16:30.418Z,868.20
2022-07-25T03:17:30.361Z,868.19
2022-07-25T03:18:30.340Z,868.19
2022-07-25T03:19:30.336Z,868.17
2022-07-25T03:20:30.316Z,868.22
2022-07-25T03:21:30.625Z,868.18
2022-07-25T03:22:30.280Z,868.22
2022-07-25T03:23:30.269Z,868.24
2022-07-25T03:24:30.240Z,868.25
2022-07-25T03:25:30.333Z,868.28
2022-07-25T03:26:30.221Z,868.32
2022-07-25T03:27:30.244Z,868.33
2022-07-25T03:28:30.226Z,868.41
2022-07-25T03:29:30.210Z,868.42
2022-07-25T03:30:30.184Z,868.43
2022-07-25T03:31:30.268Z,868.41
2022-07-25T03:32:30.158Z,868.37
2022-07-25T03:33:30.182Z,868.40
2022-07-25T03:34:30.143Z,868.36
2022-07-25T03:35:30.145Z,868.40
2022-07-25T03:36:30.111Z,868.39
2022-07-25T03:37:30.111Z,868.42
2022-07-25T03:38:30.186Z,868.40
2022-07-25T03:39:30.082Z,868.44
2022-07-25T03:40:30.070Z,868.49
2022-07-25T03:41:30.195Z,868.50
2022-07-25T03:42:34.969Z,868.49
2022-07-25T03:43:31.066Z,868.49
2022-07-25T03:44:30.023Z,868.46
2022-07-25T03:45:30.131Z,868.47
2022-07-25T03:46:30.121Z,868.44
2022-07-25T03:47:30.034Z,868.45
2022-07-25T03:48:30.017Z,868.43
2022-07-25T03:49:29.985Z,868.42
2022-07-25T03:50:29.960Z,868.40
2022-07-25T03:51:29.955Z,868.37
2022-07-25T03:52:29.943Z,868.37
2022-07-25T03:53:29.948Z,868.37
2022-07-25T03:54:29.923Z,868.36
2022-07-25T03:55:29.923Z,868.30
2022-07-25T03:56:29.923Z,868.27
2022-07-25T03:57:29.915Z,868.27
2022-07-25T03:58:29.882Z,868.28
2022-07-25T03:59:29.880Z,868.27
2022-07-25T04:00:29.859Z,868.27
2022-07-25T04:01:30.220Z,868.28
2022-07-25T04:02:29.888Z,868.27
2022-07-25T04:03:29.840Z,868.26
2022-07-25T04:04:29.839Z,868.28
2022-07-25T04:05:29.815Z,868.27
2022-07-25T04:06:29.827Z,868.32
2022-07-25T04:07:29.840Z,868.30
2022-07-25T04:08:29.789Z,868.29
2022-07-25T04:09:31.103Z,868.31
2022-07-25T04:10:29.767Z,868.28
2022-07-25T04:11:29.807Z,868.32
2022-07-25T04:12:29.711Z,868.31
2022-07-25T04:13:29.790Z,868.32
2022-07-25T04:14:29.738Z,868.36
2022-07-25T04:15:29.759Z,868.37
2022-07-25T04:16:29.816Z,868.39
2022-07-25T04:17:29.711Z,868.38
2022-07-25T04:18:29.639Z,868.40
2022-07-25T04:19:29.724Z,868.41
2022-07-25T04:20:29.640Z,868.40
2022-07-25T04:21:29.667Z,868.41
2022-07-25T04:22:29.623Z,868.42
2022-07-25T04:23:29.604Z,868.40
2022-07-25T04:24:29.582Z,868.39
2022-07-25T04:25:29.624Z,868.39
2022-07-25T04:26:29.621Z,868.39
2022-07-25T04:27:29.579Z,868.36
2022-07-25T04:28:29.546Z,868.36
2022-07-25T04:29:29.551Z,868.37
2022-07-25T04:30:29.543Z,868.37
2022-07-25T04:31:29.648Z,868.35
2022-07-25T04:32:29.496Z,868.40
2022-07-25T04:33:29.523Z,868.40
2022-07-25T04:34:29.496Z,868.43
2022-07-25T04:35:29.495Z,868.41
2022-07-25T04:36:30.395Z,868.45
2022-07-25T04:37:29.463Z,868.44
2022-07-25T04:38:29.423Z,868.46
2022-07-25T04:39:29.424Z,868.49
2022-07-25T04:40:29.407Z,868.51
2022-07-25T04:41:30.083Z,868.49
2022-07-25T04:42:29.391Z,868.55
2022-07-25T04:43:29.388Z,868.53
2022-07-25T04:44:29.355Z,868.54
2022-07-25T04:45:29.422Z,868.52
2022-07-25T04:46:29.344Z,868.57
2022-07-25T04:47:29.335Z,868.53
2022-07-25T04:48:29.392Z,868.56
2022-07-25T04:49:29.314Z,868.59
2022-07-25T04:50:29.297Z,868.57
2022-07-25T04:51:29.294Z,868.61
2022-07-25T04:52:29.280Z,868.61
2022-07-25T04:53:29.271Z,868.69
2022-07-25T04:54:29.255Z,868.69
2022-07-25T04:55:29.260Z,868.69
2022-07-25T04:56:29.247Z,868.74
2022-07-25T04:57:29.268Z,868.77
2022-07-25T04:58:29.211Z,868.82
2022-07-25T04:59:29.227Z,868.84
2022-07-25T05:00:29.308Z,868.89
2022-07-25T05:01:29.276Z,868.94
2022-07-25T05:02:29.194Z,868.95
2022-07-25T05:03:29.200Z,868.94
2022-07-25T05:04:29.151Z,868.98
2022-07-25T05:05:29.144Z,869.04
2022-07-25T05:06:29.212Z,869.04
2022-07-25T05:07:29.143Z,869.07
2022-07-25T05:08:29.111Z,869.11
2022-07-25T05:09:29.108Z,869.19
2022-07-25T05:10:29.080Z,869.30
2022-07-25T05:11:29.236Z,869.39
2022-07-25T05:12:29.092Z,869.47
2022-07-25T05:13:29.129Z,869.54
2022-07-25T05:14:29.051Z,869.60
2022-07-25T05:15:29.075Z,869.62
2022-07-25T05:16:29.170Z,869.68
2022-07-25T05:17:29.043Z,869.70
2022-07-25T05:18:28.999Z,869.73
2022-07-25T05:19:29.031Z,869.81
2022-07-25T05:20:28.977Z,869.85
2022-07-25T05:21:29.204Z,869.94
2022-07-25T05:22:29.144Z,869.98
2022-07-25T05:23:28.999Z,870.03
2022-07-25T05:24:28.949Z,870.09
2022-07-25T05:25:29.012Z,870.11
2022-07-25T05:26:28.903Z,870.24
2022-07-25T05:27:28.944Z,870.25
2022-07-25T05:28:28.931Z,870.39
2022-07-25T05:29:28.906Z,870.45
2022-07-25T05:30:28.864Z,870.54
2022-07-25T05:31:29.022Z,870.59
2022-07-25T05:32:28.860Z,870.68
2022-07-25T05:33:28.848Z,870.74
2022-07-25T05:34:29.236Z,870.77
2022-07-25T05:35:28.835Z,870.79
2022-07-25T05:36:28.832Z,870.85
2022-07-25T05:37:28.787Z,870.90
2022-07-25T05:38:29.030Z,870.92
2022-07-25T05:39:28.779Z,870.97
2022-07-25T05:40:28.762Z,871.04
2022-07-25T05:41:28.861Z,871.07
2022-07-25T05:42:28.728Z,871.13
2022-07-25T05:43:28.768Z,871.19
2022-07-25T05:44:28.711Z,871.20
2022-07-25T05:45:28.717Z,871.27
2022-07-25T05:46:28.738Z,871.29
2022-07-25T05:47:28.707Z,871.38
2022-07-25T05:48:28.725Z,871.43
2022-07-25T05:49:28.661Z,871.47
2022-07-25T05:50:29.400Z,871.47
2022-07-25T05:51:28.677Z,871.58
2022-07-25T05:52:28.620Z,871.62
2022-07-25T05:53:28.614Z,871.71
2022-07-25T05:54:28.618Z,871.74
2022-07-25T05:55:28.600Z,871.78
2022-07-25T05:56:28.596Z,871.80
2022-07-25T05:57:28.565Z,871.84
2022-07-25T05:58:30.017Z,871.86
2022-07-25T05:59:28.564Z,871.88
2022-07-25T06:00:28.646Z,871.84
2022-07-25T06:01:28.707Z,871.95
2022-07-25T06:02:28.730Z,871.97
2022-07-25T06:03:28.603Z,871.97
2022-07-25T06:04:28.504Z,872.01
2022-07-25T06:05:28.493Z,872.06
2022-07-25T06:06:28.503Z,872.02
2022-07-25T06:07:28.456Z,872.07
2022-07-25T06:08:28.446Z,872.10
2022-07-25T06:09:28.445Z,872.10
2022-07-25T06:10:28.837Z,872.12
2022-07-25T06:11:29.195Z,872.14
2022-07-25T06:12:28.416Z,872.11
2022-07-25T06:13:28.404Z,872.10
2022-07-25T06:14:28.513Z,872.09
2022-07-25T06:15:28.364Z,872.14
2022-07-25T06:16:28.569Z,872.10
2022-07-25T06:17:32.387Z,872.10
2022-07-25T06:18:28.408Z,872.11
2022-07-25T06:19:28.322Z,872.08
2022-07-25T06:20:28.316Z,872.12
2022-07-25T06:21:28.381Z,872.15
2022-07-25T06:22:28.308Z,872.17
2022-07-25T06:23:28.295Z,872.19
2022-07-25T06:24:28.268Z,872.25
2022-07-25T06:25:29.120Z,872.30
2022-07-25T06:26:28.270Z,872.40
2022-07-25T06:27:29.516Z,872.43
2022-07-25T06:28:28.272Z,872.43
2022-07-25T06:29:28.208Z,872.50
2022-07-25T06:30:28.254Z,872.55
2022-07-25T06:31:28.437Z,872.58
2022-07-25T06:32:28.193Z,872.65
2022-07-25T06:33:28.180Z,872.69
2022-07-25T06:34:28.899Z,872.78
2022-07-25T06:35:28.141Z,872.77
2022-07-25T06:36:32.538Z,872.86
2022-07-25T06:37:28.223Z,872.93
2022-07-25T06:38:28.122Z,873.08
2022-07-25T06:39:28.111Z,873.10
2022-07-25T06:40:28.141Z,873.15
2022-07-25T06:41:28.080Z,873.24
2022-07-25T06:42:28.113Z,873.29
2022-07-25T06:43:28.076Z,873.33
2022-07-25T06:44:28.065Z,873.35
2022-07-25T06:45:28.040Z,873.38
2022-07-25T06:46:28.189Z,873.43
2022-07-25T06:47:30.656Z,873.52
2022-07-25T06:48:28.440Z,873.59
2022-07-25T06:49:28.006Z,873.60
2022-07-25T06:50:28.097Z,873.61
2022-07-25T06:51:28.059Z,873.64
2022-07-25T06:52:27.965Z,873.72
2022-07-25T06:53:27.968Z,873.73
2022-07-25T06:54:27.945Z,873.75
2022-07-25T06:55:27.969Z,873.82
2022-07-25T06:56:27.997Z,873.83
2022-07-25T06:57:27.926Z,873.87
2022-07-25T06:58:27.906Z,873.90
2022-07-25T06:59:27.909Z,873.92
2022-07-25T07:00:27.936Z,873.93
2022-07-25T07:01:28.035Z,873.89
2022-07-25T07:02:27.857Z,873.86
2022-07-25T07:03:27.944Z,873.87
2022-07-25T07:04:27.864Z,873.84
2022-07-25T07:05:27.817Z,873.88
2022-07-25T07:06:27.893Z,873.90
2022-07-25T07:07:27.798Z,873.95
2022-07-25T07:08:27.809Z,873.99
2022-07-25T07:09:27.798Z,873.98
2022-07-25T07:10:28.641Z,874.02
2022-07-25T07:11:27.844Z,874.04
2022-07-25T07:12:27.753Z,874.08
2022-07-25T07:13:27.743Z,874.07
2022-07-25T07:14:27.749Z,874.07
2022-07-25T07:15:27.723Z,874.10
2022-07-25T07:16:27.891Z,874.08
2022-07-25T07:17:27.701Z,874.06
2022-07-25T07:18:27.696Z,874.05
2022-07-25T07:19:27.722Z,874.01
2022-07-25T07:20:27.674Z,874.02
2022-07-25T07:21:27.750Z,874.02
2022-07-25T07:22:27.662Z,874.09
2022-07-25T07:23:28.969Z,874.14
2022-07-25T07:24:27.641Z,874.23
2022-07-25T07:25:28.507Z,874.36
2022-07-25T07:26:27.668Z,874.43
2022-07-25T07:27:27.588Z,874.50
2022-07-25T07:28:27.606Z,874.58
2022-07-25T07:29:27.566Z,874.68
2022-07-25T07:30:49.264Z,874.70
2022-07-25T07:31:28.667Z,874.72
2022-07-25T07:32:27.527Z,874.76
2022-07-25T07:33:27.525Z,874.78
2022-07-25T07:34:27.517Z,874.83
2022-07-25T07:35:27.513Z,874.92
2022-07-25T07:36:27.580Z,874.97
2022-07-25T07:37:31.633Z,875.02
2022-07-25T07:38:28.479Z,875.12
2022-07-25T07:39:27.449Z,875.21
2022-07-25T07:40:27.469Z,875.29
2022-07-25T07:41:27.438Z,875.40
2022-07-25T07:42:27.430Z,875.44
2022-07-25T07:43:30.121Z,875.53
2022-07-25T07:44:27.408Z,875.61
2022-07-25T07:45:27.390Z,875.64
2022-07-25T07:46:27.631Z,875.75
2022-07-25T07:47:27.370Z,875.84
2022-07-25T07:48:27.405Z,875.91
2022-07-25T07:49:27.454Z,875.98
2022-07-25T07:50:27.363Z,876.02
2022-07-25T07:51:27.354Z,876.13
2022-07-25T07:52:27.324Z,876.18
2022-07-25T07:53:27.342Z,876.37
2022-07-25T07:54:27.310Z,876.47
2022-07-25T07:55:27.290Z,876.59
2022-07-25T07:56:27.295Z,876.65
2022-07-25T07:57:27.281Z,876.75
2022-07-25T07:58:27.254Z,876.80
2022-07-25T07:59:27.248Z,876.87
2022-07-25T08:00:27.251Z,876.93
2022-07-25T08:01:27.278Z,877.01
2022-07-25T08:02:27.235Z,877.09
2022-07-25T08:03:27.232Z,877.17
2022-07-25T08:04:27.195Z,877.27
2022-07-25T08:05:27.199Z,877.41
2022-07-25T08:06:27.281Z,877.52
2022-07-25T08:07:27.170Z,877.60
2022-07-25T08:08:31.159Z,877.62
2022-07-25T08:09:27.219Z,877.59
2022-07-25T08:10:27.140Z,877.59
2022-07-25T08:11:27.127Z,877.66
2022-07-25T08:12:27.107Z,877.55
2022-07-25T08:13:27.086Z,877.49
2022-07-25T08:14:27.086Z,877.50
2022-07-25T08:15:27.060Z,877.45
2022-07-25T08:16:27.190Z,877.40
2022-07-25T08:17:28.795Z,877.34
2022-07-25T08:18:27.051Z,877.33
2022-07-25T08:19:27.238Z,877.40
2022-07-25T08:20:37.912Z,877.41
2022-07-25T08:21:28.007Z,877.42
2022-07-25T08:22:27.164Z,877.41
2022-07-25T08:23:26.991Z,877.38
2022-07-25T08:24:26.984Z,877.33
2022-07-25T08:25:26.959Z,877.34
2022-07-25T08:26:26.963Z,877.37
2022-07-25T08:27:26.982Z,877.42
2022-07-25T08:28:26.950Z,877.43
2022-07-25T08:29:28.362Z,877.50
2022-07-25T08:30:26.927Z,877.48
2022-07-25T08:31:26.977Z,877.49
2022-07-25T08:32:26.905Z,877.44
2022-07-25T08:33:26.874Z,877.49
2022-07-25T08:34:26.875Z,877.47
2022-07-25T08:35:26.855Z,877.48
2022-07-25T08:36:26.978Z,877.49
2022-07-25T08:37:26.857Z,877.51
2022-07-25T08:38:26.835Z,877.47
2022-07-25T08:39:26.867Z,877.52
2022-07-25T08:40:26.810Z,877.51
2022-07-25T08:41:26.790Z,877.54
2022-07-25T08:42:26.806Z,877.42
2022-07-25T08:43:26.767Z,877.39
2022-07-25T08:44:26.767Z,877.47
2022-07-25T08:45:26.761Z,877.39
2022-07-25T08:46:26.781Z,877.40
2022-07-25T08:47:26.735Z,877.42
2022-07-25T08:48:26.852Z,877.45
2022-07-25T08:49:26.699Z,877.43
2022-07-25T08:50:26.707Z,877.42
2022-07-25T08:51:26.700Z,877.43
2022-07-25T08:52:26.687Z,877.46
2022-07-25T08:53:34.832Z,877.44
2022-07-25T08:54:27.664Z,877.47
2022-07-25T08:55:26.643Z,877.52
2022-07-25T08:56:26.631Z,877.51
2022-07-25T08:57:26.628Z,877.53
2022-07-25T08:58:26.631Z,877.48
2022-07-25T08:59:26.984Z,877.47
2022-07-25T09:00:26.595Z,877.49
2022-07-25T09:01:30.308Z,877.45
2022-07-25T09:02:27.705Z,877.40
2022-07-25T09:03:26.612Z,877.42
2022-07-25T09:04:26.543Z,877.41
2022-07-25T09:05:26.523Z,877.40
2022-07-25T09:06:26.546Z,877.42
2022-07-25T09:07:26.516Z,877.42
2022-07-25T09:08:26.516Z,877.46
2022-07-25T09:09:26.491Z,877.47
2022-07-25T09:10:26.537Z,877.45
2022-07-25T09:11:27.441Z,877.41
2022-07-25T09:12:26.464Z,877.42
2022-07-25T09:13:26.455Z,877.32
2022-07-25T09:14:26.448Z,877.33
2022-07-25T09:15:26.428Z,877.24
2022-07-25T09:16:26.455Z,877.25
2022-07-25T09:17:26.406Z,877.23
2022-07-25T09:18:26.427Z,877.18
2022-07-25T09:19:26.720Z,877.21
2022-07-25T09:20:26.368Z,877.25
2022-07-25T09:21:26.366Z,877.25
2022-07-25T09:22:26.360Z,877.24
2022-07-25T09:23:26.337Z,877.20
2022-07-25T09:24:26.340Z,877.19
2022-07-25T09:25:26.308Z,877.23
2022-07-25T09:26:26.309Z,877.24
2022-07-25T09:27:26.299Z,877.26
2022-07-25T09:28:26.292Z,877.33
2022-07-25T09:29:26.293Z,877.30
2022-07-25T09:30:26.281Z,877.32
2022-07-25T09:31:26.280Z,877.24
2022-07-25T09:32:26.260Z,877.20
2022-07-25T09:33:26.260Z,877.11
2022-07-25T09:34:26.245Z,877.11
2022-07-25T09:35:26.214Z,877.18
2022-07-25T09:36:26.214Z,877.10
2022-07-25T09:37:26.192Z,877.07
2022-07-25T09:38:26.184Z,877.10
2022-07-25T09:39:26.655Z,877.15
2022-07-25T09:40:26.171Z,877.20
2022-07-25T09:41:26.144Z,877.25
2022-07-25T09:42:26.152Z,877.33
2022-07-25T09:43:26.144Z,877.41
2022-07-25T09:44:26.125Z,877.47
2022-07-25T09:45:31.300Z,877.40
2022-07-25T09:46:27.097Z,877.45
2022-07-25T09:47:26.089Z,877.48
2022-07-25T09:48:26.122Z,877.50
2022-07-25T09:49:26.057Z,877.56
2022-07-25T09:50:26.069Z,877.64
2022-07-25T09:51:26.038Z,877.67
2022-07-25T09:52:26.060Z,877.68
2022-07-25T09:53:26.008Z,877.61
2022-07-25T09:54:26.009Z,877.65
2022-07-25T09:55:26.003Z,877.59
2022-07-25T09:56:25.988Z,877.62
2022-07-25T09:57:26.032Z,877.68
2022-07-25T09:58:25.968Z,877.65
2022-07-25T09:59:25.949Z,877.59
2022-07-25T10:00:26.108Z,877.49
2022-07-25T10:01:26.002Z,877.42
2022-07-25T10:02:25.953Z,877.48
2022-07-25T10:03:25.991Z,877.53
2022-07-25T10:04:25.905Z,877.59
2022-07-25T10:05:25.888Z,877.72
2022-07-25T10:06:25.885Z,877.84
2022-07-25T10:07:29.517Z,877.99
2022-07-25T10:08:27.153Z,878.01
2022-07-25T10:09:25.832Z,878.08
2022-07-25T10:10:25.841Z,877.96
2022-07-25T10:11:25.833Z,877.93
2022-07-25T10:12:25.832Z,877.78
2022-07-25T10:13:25.792Z,877.83
2022-07-25T10:14:25.787Z,877.90
2022-07-25T10:15:25.865Z,877.95
2022-07-25T10:16:25.810Z,878.05
2022-07-25T10:17:25.771Z,878.24
2022-07-25T10:18:25.745Z,878.39
2022-07-25T10:19:25.737Z,878.71
2022-07-25T10:20:25.728Z,878.85
2022-07-25T10:21:27.721Z,878.72
2022-07-25T10:22:46.563Z,878.76
2022-07-25T10:23:26.697Z,878.82
2022-07-25T10:24:25.686Z,878.82
2022-07-25T10:25:25.683Z,879.07
2022-07-25T10:26:25.689Z,879.28
2022-07-25T10:27:25.660Z,879.10
2022-07-25T10:28:25.782Z,879.05
2022-07-25T10:29:25.638Z,879.14
2022-07-25T10:30:25.611Z,879.17
2022-07-25T10:31:25.703Z,879.06
2022-07-25T10:32:25.602Z,879.20
2022-07-25T10:33:25.590Z,879.21
2022-07-25T10:34:25.577Z,879.39
2022-07-25T10:35:25.569Z,879.72
2022-07-25T10:36:25.557Z,879.62
2022-07-25T10:37:25.571Z,879.85
2022-07-25T10:38:25.535Z,880.10
2022-07-25T10:39:25.553Z,880.03
2022-07-25T10:40:25.500Z,879.87
2022-07-25T10:41:25.510Z,879.96
2022-07-25T10:42:25.502Z,879.77
2022-07-25T10:43:25.508Z,879.69
2022-07-25T10:44:25.461Z,879.36
2022-07-25T10:45:25.469Z,879.33
2022-07-25T10:46:25.479Z,879.19
2022-07-25T10:47:25.465Z,879.30
2022-07-25T10:48:25.819Z,879.49
2022-07-25T10:49:31.796Z,879.68
2022-07-25T10:50:53.478Z,879.52
2022-07-25T10:51:26.413Z,879.63
2022-07-25T10:52:25.377Z,879.83
2022-07-25T10:53:25.390Z,880.09
2022-07-25T10:54:25.366Z,880.06
2022-07-25T10:55:25.366Z,879.80
2022-07-25T10:56:25.337Z,879.87
2022-07-25T10:57:28.360Z,879.63
2022-07-25T10:58:26.409Z,879.60
2022-07-25T10:59:25.317Z,879.50
2022-07-25T11:00:25.298Z,879.41
2022-07-25T11:01:25.418Z,879.47
2022-07-25T11:02:25.329Z,879.26
2022-07-25T11:03:25.277Z,879.27
2022-07-25T11:04:25.269Z,879.21
2022-07-25T11:05:25.262Z,879.07
2022-07-25T11:06:25.231Z,879.20
2022-07-25T11:07:25.230Z,879.24
2022-07-25T11:08:25.237Z,879.24
2022-07-25T11:09:27.655Z,879.17
2022-07-25T11:10:25.190Z,879.24
2022-07-25T11:11:25.193Z,879.24
2022-07-25T11:12:25.170Z,879.27
2022-07-25T11:13:25.160Z,879.26
2022-07-25T11:14:25.172Z,879.13
2022-07-25T11:15:25.165Z,879.06
2022-07-25T11:16:25.155Z,878.97
2022-07-25T11:17:25.134Z,878.98
2022-07-25T11:18:25.121Z,878.89
2022-07-25T11:19:25.114Z,878.80
2022-07-25T11:20:25.093Z,878.66
2022-07-25T11:21:25.086Z,878.68
2022-07-25T11:22:25.082Z,878.58
2022-07-25T11:23:25.066Z,878.54
2022-07-25T11:24:25.037Z,878.49
2022-07-25T11:25:25.058Z,878.36
2022-07-25T11:26:25.038Z,878.16
2022-07-25T11:27:25.028Z,877.94
2022-07-25T11:28:25.142Z,877.72
2022-07-25T11:29:25.028Z,877.36
2022-07-25T11:30:24.982Z,877.35
2022-07-25T11:31:25.006Z,877.33
2022-07-25T11:32:24.998Z,877.30
2022-07-25T11:33:24.989Z,877.26
2022-07-25T11:34:24.937Z,877.23
2022-07-25T11:35:24.958Z,877.20
2022-07-25T11:36:24.910Z,877.19
2022-07-25T11:37:24.911Z,877.22
2022-07-25T11:38:24.901Z,877.27
2022-07-25T11:39:24.891Z,877.28
2022-07-25T11:40:25.107Z,877.33
2022-07-25T11:41:24.890Z,877.42
2022-07-25T11:42:24.844Z,877.46
2022-07-25T11:43:24.842Z,877.62
2022-07-25T11:44:24.844Z,877.67
2022-07-25T11:45:24.841Z,877.94
2022-07-25T11:46:24.867Z,878.03
2022-07-25T11:47:24.815Z,878.28
2022-07-25T11:48:25.054Z,878.49
2022-07-25T11:49:24.897Z,878.70
2022-07-25T11:50:25.314Z,878.78
2022-07-25T11:51:24.786Z,878.84
2022-07-25T11:52:24.746Z,879.03
2022-07-25T11:53:24.758Z,879.10
2022-07-25T11:54:24.714Z,879.30
2022-07-25T11:55:24.734Z,879.56
2022-07-25T11:57:25.707Z,879.67
2022-07-25T11:58:24.674Z,879.48
2022-07-25T11:59:24.678Z,879.69
2022-07-25T12:00:24.660Z,879.94
2022-07-25T12:01:24.669Z,880.04
2022-07-25T12:02:24.753Z,879.79
2022-07-25T12:03:24.777Z,879.91
2022-07-25T12:04:24.618Z,879.79
2022-07-25T12:05:24.631Z,879.76
2022-07-25T12:06:24.627Z,879.82
2022-07-25T12:07:24.601Z,879.70
2022-07-25T12:08:24.573Z,879.59
2022-07-25T12:09:24.570Z,879.72
2022-07-25T12:10:24.550Z,880.08
2022-07-25T12:11:24.558Z,880.12
2022-07-25T12:12:24.544Z,879.92
2022-07-25T12:13:24.532Z,879.67
2022-07-25T12:14:24.510Z,879.88
2022-07-25T12:15:24.511Z,880.16
2022-07-25T12:16:24.587Z,880.28
2022-07-25T12:17:24.490Z,880.51
2022-07-25T12:18:24.471Z,880.59
2022-07-25T12:19:24.483Z,880.67
2022-07-25T12:20:24.443Z,880.63
2022-07-25T12:21:24.463Z,880.43
2022-07-25T12:22:24.764Z,880.64
2022-07-25T12:23:24.435Z,880.65
2022-07-25T12:24:24.406Z,880.65
2022-07-25T12:25:28.913Z,880.49
2022-07-25T12:26:26.126Z,880.48
2022-07-25T12:27:24.495Z,880.56
2022-07-25T12:28:24.355Z,880.65
2022-07-25T12:29:24.388Z,880.71